sensor_id;sensor_type;location;lat;lon;timestamp;pressure;altitude;pressure_sealevel;temperature
20733;BMP180;10527;52.124;5.196;2022-08-19T00:02:09;101256.00;;;30.70
20733;BMP180;10527;52.124;5.196;2022-08-19T00:04:40;101263.00;;;30.70
20733;BMP180;10527;52.124;5.196;2022-08-19T00:07:07;101259.00;;;30.70
20733;BMP180;10527;52.124;5.196;2022-08-19T00:09:36;101249.00;;;30.60
20733;BMP180;10527;52.124;5.196;2022-08-19T00:12:04;101263.00;;;30.60
20733;BMP180;10527;52.124;5.196;2022-08-19T00:14:31;101270.00;;;30.60
20733;BMP180;10527;52.124;5.196;2022-08-19T00:16:59;101267.00;;;30.60
20733;BMP180;10527;52.124;5.196;2022-08-19T00:19:26;101271.00;;;30.50
20733;BMP180;10527;52.124;5.196;2022-08-19T00:21:53;101268.00;;;30.50
20733;BMP180;10527;52.124;5.196;2022-08-19T00:24:23;101275.00;;;30.50
20733;BMP180;10527;52.124;5.196;2022-08-19T00:26:50;101264.00;;;30.50
20733;BMP180;10527;52.124;5.196;2022-08-19T00:29:20;101269.00;;;30.40
20733;BMP180;10527;52.124;5.196;2022-08-19T00:31:48;101267.00;;;30.40
20733;BMP180;10527;52.124;5.196;2022-08-19T00:34:17;101261.00;;;30.30
20733;BMP180;10527;52.124;5.196;2022-08-19T00:36:44;101254.00;;;30.30
20733;BMP180;10527;52.124;5.196;2022-08-19T00:39:12;101261.00;;;30.20
20733;BMP180;10527;52.124;5.196;2022-08-19T00:41:41;101260.00;;;30.20
20733;BMP180;10527;52.124;5.196;2022-08-19T00:44:19;101258.00;;;30.20
20733;BMP180;10527;52.124;5.196;2022-08-19T00:46:50;101261.00;;;30.20
20733;BMP180;10527;52.124;5.196;2022-08-19T00:52:03;101253.00;;;30.20
20733;BMP180;10527;52.124;5.196;2022-08-19T00:54:32;101258.00;;;30.20
20733;BMP180;10527;52.124;5.196;2022-08-19T00:57:12;101255.00;;;30.10
20733;BMP180;10527;52.124;5.196;2022-08-19T00:59:45;101255.00;;;30.10
20733;BMP180;10527;52.124;5.196;2022-08-19T01:02:30;101259.00;;;30.00
20733;BMP180;10527;52.124;5.196;2022-08-19T01:05:00;101254.00;;;30.00
20733;BMP180;10527;52.124;5.196;2022-08-19T01:07:28;101254.00;;;30.00
20733;BMP180;10527;52.124;5.196;2022-08-19T01:10:13;101255.00;;;30.00
20733;BMP180;10527;52.124;5.196;2022-08-19T01:12:40;101259.00;;;30.00
20733;BMP180;10527;52.124;5.196;2022-08-19T01:15:11;101257.00;;;30.00
20733;BMP180;10527;52.124;5.196;2022-08-19T01:17:41;101248.00;;;30.00
20733;BMP180;10527;52.124;5.196;2022-08-19T01:20:17;101247.00;;;29.90
20733;BMP180;10527;52.124;5.196;2022-08-19T01:22:48;101245.00;;;29.90
20733;BMP180;10527;52.124;5.196;2022-08-19T01:25:19;101234.00;;;29.80
20733;BMP180;10527;52.124;5.196;2022-08-19T01:27:49;101240.00;;;29.80
20733;BMP180;10527;52.124;5.196;2022-08-19T01:30:31;101250.00;;;29.80
20733;BMP180;10527;52.124;5.196;2022-08-19T01:33:02;101256.00;;;29.80
20733;BMP180;10527;52.124;5.196;2022-08-19T01:35:32;101257.00;;;29.80
20733;BMP180;10527;52.124;5.196;2022-08-19T01:38:04;101262.00;;;29.80
20733;BMP180;10527;52.124;5.196;2022-08-19T01:40:39;101251.00;;;29.80
20733;BMP180;10527;52.124;5.196;2022-08-19T01:43:06;101266.00;;;29.70
20733;BMP180;10527;52.124;5.196;2022-08-19T01:45:35;101273.00;;;29.70
20733;BMP180;10527;52.124;5.196;2022-08-19T01:48:03;101271.00;;;29.60
20733;BMP180;10527;52.124;5.196;2022-08-19T01:50:33;101259.00;;;29.60
20733;BMP180;10527;52.124;5.196;2022-08-19T01:53:04;101261.00;;;29.60
20733;BMP180;10527;52.124;5.196;2022-08-19T01:55:39;101261.00;;;29.60
20733;BMP180;10527;52.124;5.196;2022-08-19T01:58:18;101261.00;;;29.60
20733;BMP180;10527;52.124;5.196;2022-08-19T02:00:48;101269.00;;;29.50
20733;BMP180;10527;52.124;5.196;2022-08-19T02:03:16;101273.00;;;29.50
20733;BMP180;10527;52.124;5.196;2022-08-19T02:05:45;101273.00;;;29.50
20733;BMP180;10527;52.124;5.196;2022-08-19T02:08:12;101268.00;;;29.50
20733;BMP180;10527;52.124;5.196;2022-08-19T02:10:43;101265.00;;;29.40
20733;BMP180;10527;52.124;5.196;2022-08-19T02:13:12;101261.00;;;29.40
20733;BMP180;10527;52.124;5.196;2022-08-19T02:15:41;101268.00;;;29.40
20733;BMP180;10527;52.124;5.196;2022-08-19T02:18:08;101268.00;;;29.40
20733;BMP180;10527;52.124;5.196;2022-08-19T02:20:38;101274.00;;;29.30
20733;BMP180;10527;52.124;5.196;2022-08-19T02:23:05;101268.00;;;29.30
20733;BMP180;10527;52.124;5.196;2022-08-19T02:25:44;101261.00;;;29.30
20733;BMP180;10527;52.124;5.196;2022-08-19T02:28:11;101250.00;;;29.30
20733;BMP180;10527;52.124;5.196;2022-08-19T02:30:46;101259.00;;;29.30
20733;BMP180;10527;52.124;5.196;2022-08-19T02:33:15;101272.00;;;29.30
20733;BMP180;10527;52.124;5.196;2022-08-19T02:35:45;101278.00;;;29.30
20733;BMP180;10527;52.124;5.196;2022-08-19T02:38:13;101270.00;;;29.30
20733;BMP180;10527;52.124;5.196;2022-08-19T02:40:59;101276.00;;;29.30
20733;BMP180;10527;52.124;5.196;2022-08-19T02:43:30;101279.00;;;29.20
20733;BMP180;10527;52.124;5.196;2022-08-19T02:46:01;101281.00;;;29.20
20733;BMP180;10527;52.124;5.196;2022-08-19T02:48:28;101272.00;;;29.20
20733;BMP180;10527;52.124;5.196;2022-08-19T02:50:55;101274.00;;;29.20
20733;BMP180;10527;52.124;5.196;2022-08-19T02:53:26;101262.00;;;29.20
20733;BMP180;10527;52.124;5.196;2022-08-19T02:55:53;101249.00;;;29.10
20733;BMP180;10527;52.124;5.196;2022-08-19T02:58:21;101260.00;;;29.10
20733;BMP180;10527;52.124;5.196;2022-08-19T03:00:53;101256.00;;;29.10
20733;BMP180;10527;52.124;5.196;2022-08-19T03:03:20;101251.00;;;29.10
20733;BMP180;10527;52.124;5.196;2022-08-19T03:05:48;101258.00;;;29.10
20733;BMP180;10527;52.124;5.196;2022-08-19T03:08:23;101249.00;;;29.10
20733;BMP180;10527;52.124;5.196;2022-08-19T03:10:51;101251.00;;;29.00
20733;BMP180;10527;52.124;5.196;2022-08-19T03:13:19;101249.00;;;29.00
20733;BMP180;10527;52.124;5.196;2022-08-19T03:15:47;101245.00;;;29.00
20733;BMP180;10527;52.124;5.196;2022-08-19T03:18:15;101250.00;;;28.90
20733;BMP180;10527;52.124;5.196;2022-08-19T03:20:47;101248.00;;;28.90
20733;BMP180;10527;52.124;5.196;2022-08-19T03:23:16;101255.00;;;28.90
20733;BMP180;10527;52.124;5.196;2022-08-19T03:25:47;101248.00;;;28.90
20733;BMP180;10527;52.124;5.196;2022-08-19T03:28:35;101243.00;;;28.90
20733;BMP180;10527;52.124;5.196;2022-08-19T03:31:06;101243.00;;;28.90
20733;BMP180;10527;52.124;5.196;2022-08-19T03:33:55;101253.00;;;28.90
20733;BMP180;10527;52.124;5.196;2022-08-19T03:36:26;101244.00;;;28.80
20733;BMP180;10527;52.124;5.196;2022-08-19T03:39:00;101231.00;;;28.80
20733;BMP180;10527;52.124;5.196;2022-08-19T03:41:36;101236.00;;;28.80
20733;BMP180;10527;52.124;5.196;2022-08-19T03:44:13;101235.00;;;28.70
20733;BMP180;10527;52.124;5.196;2022-08-19T03:46:47;101241.00;;;28.70
20733;BMP180;10527;52.124;5.196;2022-08-19T03:49:24;101243.00;;;28.70
20733;BMP180;10527;52.124;5.196;2022-08-19T03:51:57;101239.00;;;28.70
20733;BMP180;10527;52.124;5.196;2022-08-19T03:54:26;101239.00;;;28.60
20733;BMP180;10527;52.124;5.196;2022-08-19T03:56:55;101243.00;;;28.60
20733;BMP180;10527;52.124;5.196;2022-08-19T03:59:30;101235.00;;;28.60
20733;BMP180;10527;52.124;5.196;2022-08-19T04:02:03;101243.00;;;28.60
20733;BMP180;10527;52.124;5.196;2022-08-19T04:04:31;101249.00;;;28.60
20733;BMP180;10527;52.124;5.196;2022-08-19T04:06:58;101251.00;;;28.50
20733;BMP180;10527;52.124;5.196;2022-08-19T04:09:25;101253.00;;;28.50
20733;BMP180;10527;52.124;5.196;2022-08-19T04:11:55;101257.00;;;28.50
20733;BMP180;10527;52.124;5.196;2022-08-19T04:14:27;101254.00;;;28.50
20733;BMP180;10527;52.124;5.196;2022-08-19T04:16:59;101241.00;;;28.50
20733;BMP180;10527;52.124;5.196;2022-08-19T04:19:29;101244.00;;;28.40
20733;BMP180;10527;52.124;5.196;2022-08-19T04:21:57;101248.00;;;28.40
20733;BMP180;10527;52.124;5.196;2022-08-19T04:24:25;101243.00;;;28.40
20733;BMP180;10527;52.124;5.196;2022-08-19T04:26:52;101242.00;;;28.40
20733;BMP180;10527;52.124;5.196;2022-08-19T04:29:24;101238.00;;;28.30
20733;BMP180;10527;52.124;5.196;2022-08-19T04:31:57;101228.00;;;28.30
20733;BMP180;10527;52.124;5.196;2022-08-19T04:34:28;101228.00;;;28.20
20733;BMP180;10527;52.124;5.196;2022-08-19T04:36:58;101224.00;;;28.20
20733;BMP180;10527;52.124;5.196;2022-08-19T04:39:29;101225.00;;;28.20
20733;BMP180;10527;52.124;5.196;2022-08-19T04:42:18;101226.00;;;28.10
20733;BMP180;10527;52.124;5.196;2022-08-19T04:45:11;101231.00;;;28.10
20733;BMP180;10527;52.124;5.196;2022-08-19T04:47:42;101238.00;;;28.10
20733;BMP180;10527;52.124;5.196;2022-08-19T04:50:26;101247.00;;;28.10
20733;BMP180;10527;52.124;5.196;2022-08-19T04:52:53;101251.00;;;28.10
20733;BMP180;10527;52.124;5.196;2022-08-19T04:55:22;101243.00;;;28.10
20733;BMP180;10527;52.124;5.196;2022-08-19T04:57:52;101246.00;;;28.10
20733;BMP180;10527;52.124;5.196;2022-08-19T05:00:19;101245.00;;;28.10
20733;BMP180;10527;52.124;5.196;2022-08-19T05:02:45;101254.00;;;28.20
20733;BMP180;10527;52.124;5.196;2022-08-19T05:05:12;101250.00;;;28.20
20733;BMP180;10527;52.124;5.196;2022-08-19T05:07:40;101266.00;;;28.20
20733;BMP180;10527;52.124;5.196;2022-08-19T05:10:08;101260.00;;;28.20
20733;BMP180;10527;52.124;5.196;2022-08-19T05:12:35;101266.00;;;28.20
20733;BMP180;10527;52.124;5.196;2022-08-19T05:15:06;101262.00;;;28.20
20733;BMP180;10527;52.124;5.196;2022-08-19T05:17:35;101279.00;;;28.20
20733;BMP180;10527;52.124;5.196;2022-08-19T05:20:07;101274.00;;;28.20
20733;BMP180;10527;52.124;5.196;2022-08-19T05:23:06;101268.00;;;28.20
20733;BMP180;10527;52.124;5.196;2022-08-19T05:25:40;101268.00;;;28.20
20733;BMP180;10527;52.124;5.196;2022-08-19T05:28:09;101271.00;;;28.20
20733;BMP180;10527;52.124;5.196;2022-08-19T05:30:39;101274.00;;;28.20
20733;BMP180;10527;52.124;5.196;2022-08-19T05:33:13;101265.00;;;28.20
20733;BMP180;10527;52.124;5.196;2022-08-19T05:35:40;101267.00;;;28.20
20733;BMP180;10527;52.124;5.196;2022-08-19T05:38:07;101262.00;;;28.20
20733;BMP180;10527;52.124;5.196;2022-08-19T05:40:35;101262.00;;;28.20
20733;BMP180;10527;52.124;5.196;2022-08-19T05:43:05;101264.00;;;28.20
20733;BMP180;10527;52.124;5.196;2022-08-19T05:45:39;101259.00;;;28.20
20733;BMP180;10527;52.124;5.196;2022-08-19T05:48:06;101254.00;;;28.30
20733;BMP180;10527;52.124;5.196;2022-08-19T05:50:35;101256.00;;;28.30
20733;BMP180;10527;52.124;5.196;2022-08-19T05:53:02;101261.00;;;28.30
20733;BMP180;10527;52.124;5.196;2022-08-19T05:55:29;101260.00;;;28.30
20733;BMP180;10527;52.124;5.196;2022-08-19T05:57:55;101250.00;;;28.30
20733;BMP180;10527;52.124;5.196;2022-08-19T06:00:23;101251.00;;;28.30
20733;BMP180;10527;52.124;5.196;2022-08-19T06:02:50;101256.00;;;28.40
20733;BMP180;10527;52.124;5.196;2022-08-19T06:05:17;101252.00;;;28.40
20733;BMP180;10527;52.124;5.196;2022-08-19T06:07:44;101265.00;;;28.50
20733;BMP180;10527;52.124;5.196;2022-08-19T06:10:12;101257.00;;;28.50
20733;BMP180;10527;52.124;5.196;2022-08-19T06:12:41;101267.00;;;28.50
20733;BMP180;10527;52.124;5.196;2022-08-19T06:15:12;101270.00;;;28.60
20733;BMP180;10527;52.124;5.196;2022-08-19T06:17:42;101267.00;;;28.60
20733;BMP180;10527;52.124;5.196;2022-08-19T06:20:14;101267.00;;;28.60
20733;BMP180;10527;52.124;5.196;2022-08-19T06:22:50;101270.00;;;28.70
20733;BMP180;10527;52.124;5.196;2022-08-19T06:25:18;101267.00;;;28.70
20733;BMP180;10527;52.124;5.196;2022-08-19T06:27:45;101274.00;;;28.70
20733;BMP180;10527;52.124;5.196;2022-08-19T06:30:35;101269.00;;;28.70
20733;BMP180;10527;52.124;5.196;2022-08-19T06:33:04;101271.00;;;28.60
20733;BMP180;10527;52.124;5.196;2022-08-19T06:35:41;101269.00;;;28.70
20733;BMP180;10527;52.124;5.196;2022-08-19T06:38:09;101268.00;;;28.60
20733;BMP180;10527;52.124;5.196;2022-08-19T06:40:37;101275.00;;;28.70
20733;BMP180;10527;52.124;5.196;2022-08-19T06:43:05;101271.00;;;28.70
20733;BMP180;10527;52.124;5.196;2022-08-19T06:45:37;101268.00;;;28.70
20733;BMP180;10527;52.124;5.196;2022-08-19T06:48:06;101273.00;;;28.70
20733;BMP180;10527;52.124;5.196;2022-08-19T06:50:36;101266.00;;;28.70
20733;BMP180;10527;52.124;5.196;2022-08-19T06:53:06;101265.00;;;28.70
20733;BMP180;10527;52.124;5.196;2022-08-19T06:55:33;101261.00;;;28.80
20733;BMP180;10527;52.124;5.196;2022-08-19T06:58:03;101265.00;;;28.80
20733;BMP180;10527;52.124;5.196;2022-08-19T07:00:31;101263.00;;;28.90
20733;BMP180;10527;52.124;5.196;2022-08-19T07:02:59;101263.00;;;28.90
20733;BMP180;10527;52.124;5.196;2022-08-19T07:05:40;101272.00;;;29.00
20733;BMP180;10527;52.124;5.196;2022-08-19T07:08:13;101279.00;;;29.00
20733;BMP180;10527;52.124;5.196;2022-08-19T07:10:44;101276.00;;;29.00
20733;BMP180;10527;52.124;5.196;2022-08-19T07:13:11;101282.00;;;29.10
20733;BMP180;10527;52.124;5.196;2022-08-19T07:15:38;101280.00;;;29.10
20733;BMP180;10527;52.124;5.196;2022-08-19T07:18:08;101282.00;;;29.20
20733;BMP180;10527;52.124;5.196;2022-08-19T07:20:38;101286.00;;;29.20
20733;BMP180;10527;52.124;5.196;2022-08-19T07:23:09;101293.00;;;29.30
20733;BMP180;10527;52.124;5.196;2022-08-19T07:25:42;101293.00;;;29.30
20733;BMP180;10527;52.124;5.196;2022-08-19T07:28:10;101298.00;;;29.30
20733;BMP180;10527;52.124;5.196;2022-08-19T07:30:50;101291.00;;;29.30
20733;BMP180;10527;52.124;5.196;2022-08-19T07:33:18;101296.00;;;29.40
20733;BMP180;10527;52.124;5.196;2022-08-19T07:35:45;101286.00;;;29.40
20733;BMP180;10527;52.124;5.196;2022-08-19T07:38:12;101296.00;;;29.50
20733;BMP180;10527;52.124;5.196;2022-08-19T07:40:39;101291.00;;;29.50
20733;BMP180;10527;52.124;5.196;2022-08-19T07:43:07;101292.00;;;29.60
20733;BMP180;10527;52.124;5.196;2022-08-19T07:45:39;101298.00;;;29.60
20733;BMP180;10527;52.124;5.196;2022-08-19T07:48:06;101289.00;;;29.60
20733;BMP180;10527;52.124;5.196;2022-08-19T07:50:33;101293.00;;;29.70
20733;BMP180;10527;52.124;5.196;2022-08-19T07:53:01;101303.00;;;29.70
20733;BMP180;10527;52.124;5.196;2022-08-19T07:55:27;101298.00;;;29.70
20733;BMP180;10527;52.124;5.196;2022-08-19T07:58:10;101302.00;;;29.80
20733;BMP180;10527;52.124;5.196;2022-08-19T08:00:37;101304.00;;;29.80
20733;BMP180;10527;52.124;5.196;2022-08-19T08:03:04;101309.00;;;29.80
20733;BMP180;10527;52.124;5.196;2022-08-19T08:05:31;101300.00;;;29.80
20733;BMP180;10527;52.124;5.196;2022-08-19T08:08:17;101301.00;;;29.90
20733;BMP180;10527;52.124;5.196;2022-08-19T08:11:10;101315.00;;;30.00
20733;BMP180;10527;52.124;5.196;2022-08-19T08:13:41;101316.00;;;30.00
20733;BMP180;10527;52.124;5.196;2022-08-19T08:16:09;101313.00;;;30.10
20733;BMP180;10527;52.124;5.196;2022-08-19T08:18:40;101328.00;;;30.10
20733;BMP180;10527;52.124;5.196;2022-08-19T08:21:08;101337.00;;;30.30
20733;BMP180;10527;52.124;5.196;2022-08-19T08:23:36;101330.00;;;30.40
20733;BMP180;10527;52.124;5.196;2022-08-19T08:26:05;101332.00;;;30.50
20733;BMP180;10527;52.124;5.196;2022-08-19T08:28:32;101330.00;;;30.50
20733;BMP180;10527;52.124;5.196;2022-08-19T08:30:59;101331.00;;;30.60
20733;BMP180;10527;52.124;5.196;2022-08-19T08:33:28;101331.00;;;30.70
20733;BMP180;10527;52.124;5.196;2022-08-19T08:36:08;101324.00;;;30.70
20733;BMP180;10527;52.124;5.196;2022-08-19T08:38:36;101326.00;;;30.80
20733;BMP180;10527;52.124;5.196;2022-08-19T08:43:52;101328.00;;;31.20
20733;BMP180;10527;52.124;5.196;2022-08-19T08:46:37;101326.00;;;31.40
20733;BMP180;10527;52.124;5.196;2022-08-19T08:49:13;101331.00;;;31.70
20733;BMP180;10527;52.124;5.196;2022-08-19T08:51:52;101321.00;;;32.00
20733;BMP180;10527;52.124;5.196;2022-08-19T08:54:33;101331.00;;;32.30
20733;BMP180;10527;52.124;5.196;2022-08-19T08:57:09;101330.00;;;32.50
20733;BMP180;10527;52.124;5.196;2022-08-19T08:59:41;101336.00;;;32.70
20733;BMP180;10527;52.124;5.196;2022-08-19T09:02:09;101331.00;;;32.80
20733;BMP180;10527;52.124;5.196;2022-08-19T09:04:38;101327.00;;;32.80
20733;BMP180;10527;52.124;5.196;2022-08-19T09:10:43;101333.00;;;32.80
20733;BMP180;10527;52.124;5.196;2022-08-19T09:14:00;101331.00;;;32.70
20733;BMP180;10527;52.124;5.196;2022-08-19T09:16:29;101339.00;;;32.60
20733;BMP180;10527;52.124;5.196;2022-08-19T09:19:06;101339.00;;;32.60
20733;BMP180;10527;52.124;5.196;2022-08-19T09:21:34;101334.00;;;32.50
20733;BMP180;10527;52.124;5.196;2022-08-19T09:24:06;101343.00;;;32.50
20733;BMP180;10527;52.124;5.196;2022-08-19T09:26:33;101344.00;;;32.50
20733;BMP180;10527;52.124;5.196;2022-08-19T09:29:19;101344.00;;;32.50
20733;BMP180;10527;52.124;5.196;2022-08-19T09:31:48;101339.00;;;32.50
20733;BMP180;10527;52.124;5.196;2022-08-19T09:34:16;101342.00;;;32.50
20733;BMP180;10527;52.124;5.196;2022-08-19T09:36:48;101344.00;;;32.60
20733;BMP180;10527;52.124;5.196;2022-08-19T09:39:21;101346.00;;;32.60
20733;BMP180;10527;52.124;5.196;2022-08-19T09:41:48;101347.00;;;32.60
20733;BMP180;10527;52.124;5.196;2022-08-19T09:44:17;101355.00;;;32.60
20733;BMP180;10527;52.124;5.196;2022-08-19T09:46:45;101345.00;;;32.60
20733;BMP180;10527;52.124;5.196;2022-08-19T09:49:16;101351.00;;;32.70
20733;BMP180;10527;52.124;5.196;2022-08-19T09:51:52;101356.00;;;32.60
20733;BMP180;10527;52.124;5.196;2022-08-19T09:54:23;101349.00;;;32.70
20733;BMP180;10527;52.124;5.196;2022-08-19T09:56:53;101335.00;;;32.70
20733;BMP180;10527;52.124;5.196;2022-08-19T09:59:20;101348.00;;;32.70
20733;BMP180;10527;52.124;5.196;2022-08-19T10:01:48;101359.00;;;32.70
20733;BMP180;10527;52.124;5.196;2022-08-19T10:04:15;101347.00;;;32.70
20733;BMP180;10527;52.124;5.196;2022-08-19T10:06:49;101349.00;;;32.70
20733;BMP180;10527;52.124;5.196;2022-08-19T10:09:19;101346.00;;;32.80
20733;BMP180;10527;52.124;5.196;2022-08-19T10:12:02;101340.00;;;32.80
20733;BMP180;10527;52.124;5.196;2022-08-19T10:14:30;101343.00;;;32.90
20733;BMP180;10527;52.124;5.196;2022-08-19T10:16:58;101335.00;;;33.00
20733;BMP180;10527;52.124;5.196;2022-08-19T10:19:26;101337.00;;;33.10
20733;BMP180;10527;52.124;5.196;2022-08-19T10:21:55;101344.00;;;33.10
20733;BMP180;10527;52.124;5.196;2022-08-19T10:24:26;101340.00;;;33.20
20733;BMP180;10527;52.124;5.196;2022-08-19T10:26:54;101344.00;;;33.20
20733;BMP180;10527;52.124;5.196;2022-08-19T10:29:22;101342.00;;;33.30
20733;BMP180;10527;52.124;5.196;2022-08-19T10:32:05;101337.00;;;33.40
20733;BMP180;10527;52.124;5.196;2022-08-19T10:34:37;101335.00;;;33.40
20733;BMP180;10527;52.124;5.196;2022-08-19T10:37:17;101340.00;;;33.50
20733;BMP180;10527;52.124;5.196;2022-08-19T10:39:54;101339.00;;;33.50
20733;BMP180;10527;52.124;5.196;2022-08-19T10:42:21;101337.00;;;33.70
20733;BMP180;10527;52.124;5.196;2022-08-19T10:44:48;101332.00;;;33.80
20733;BMP180;10527;52.124;5.196;2022-08-19T10:47:18;101332.00;;;33.80
20733;BMP180;10527;52.124;5.196;2022-08-19T10:49:55;101328.00;;;33.90
20733;BMP180;10527;52.124;5.196;2022-08-19T10:52:45;101326.00;;;34.00
20733;BMP180;10527;52.124;5.196;2022-08-19T10:55:22;101324.00;;;34.00
20733;BMP180;10527;52.124;5.196;2022-08-19T10:58:20;101336.00;;;34.00
20733;BMP180;10527;52.124;5.196;2022-08-19T11:00:57;101332.00;;;34.00
20733;BMP180;10527;52.124;5.196;2022-08-19T11:03:26;101335.00;;;34.00
20733;BMP180;10527;52.124;5.196;2022-08-19T11:06:06;101323.00;;;34.00
20733;BMP180;10527;52.124;5.196;2022-08-19T11:08:35;101321.00;;;34.10
20733;BMP180;10527;52.124;5.196;2022-08-19T11:11:06;101322.00;;;34.10
20733;BMP180;10527;52.124;5.196;2022-08-19T11:13:37;101323.00;;;34.20
20733;BMP180;10527;52.124;5.196;2022-08-19T11:16:12;101327.00;;;34.30
20733;BMP180;10527;52.124;5.196;2022-08-19T11:18:48;101324.00;;;34.40
20733;BMP180;10527;52.124;5.196;2022-08-19T11:21:29;101321.00;;;34.50
20733;BMP180;10527;52.124;5.196;2022-08-19T11:24:04;101318.00;;;34.50
20733;BMP180;10527;52.124;5.196;2022-08-19T11:26:33;101313.00;;;34.50
20733;BMP180;10527;52.124;5.196;2022-08-19T11:29:03;101321.00;;;34.60
20733;BMP180;10527;52.124;5.196;2022-08-19T11:31:34;101317.00;;;34.60
20733;BMP180;10527;52.124;5.196;2022-08-19T11:34:05;101313.00;;;34.60
20733;BMP180;10527;52.124;5.196;2022-08-19T11:36:33;101321.00;;;34.60
20733;BMP180;10527;52.124;5.196;2022-08-19T11:39:06;101317.00;;;34.60
20733;BMP180;10527;52.124;5.196;2022-08-19T11:41:36;101318.00;;;34.50
20733;BMP180;10527;52.124;5.196;2022-08-19T11:44:03;101316.00;;;34.40
20733;BMP180;10527;52.124;5.196;2022-08-19T11:46:31;101316.00;;;34.40
20733;BMP180;10527;52.124;5.196;2022-08-19T11:49:00;101318.00;;;34.30
20733;BMP180;10527;52.124;5.196;2022-08-19T11:51:28;101310.00;;;34.20
20733;BMP180;10527;52.124;5.196;2022-08-19T11:53:58;101318.00;;;34.20
20733;BMP180;10527;52.124;5.196;2022-08-19T11:56:27;101318.00;;;34.20
20733;BMP180;10527;52.124;5.196;2022-08-19T11:58:56;101324.00;;;34.20
20733;BMP180;10527;52.124;5.196;2022-08-19T12:01:26;101327.00;;;34.10
20733;BMP180;10527;52.124;5.196;2022-08-19T12:03:55;101336.00;;;34.10
20733;BMP180;10527;52.124;5.196;2022-08-19T12:06:29;101332.00;;;34.10
20733;BMP180;10527;52.124;5.196;2022-08-19T12:09:03;101330.00;;;34.00
20733;BMP180;10527;52.124;5.196;2022-08-19T12:11:31;101334.00;;;33.90
20733;BMP180;10527;52.124;5.196;2022-08-19T12:14:00;101327.00;;;33.90
20733;BMP180;10527;52.124;5.196;2022-08-19T12:16:30;101332.00;;;33.80
20733;BMP180;10527;52.124;5.196;2022-08-19T12:18:59;101340.00;;;33.70
20733;BMP180;10527;52.124;5.196;2022-08-19T12:21:34;101338.00;;;33.70
20733;BMP180;10527;52.124;5.196;2022-08-19T12:24:03;101336.00;;;33.70
20733;BMP180;10527;52.124;5.196;2022-08-19T12:26:32;101337.00;;;33.80
20733;BMP180;10527;52.124;5.196;2022-08-19T12:29:02;101333.00;;;33.80
20733;BMP180;10527;52.124;5.196;2022-08-19T12:31:29;101325.00;;;33.90
20733;BMP180;10527;52.124;5.196;2022-08-19T12:33:57;101319.00;;;33.90
20733;BMP180;10527;52.124;5.196;2022-08-19T12:36:24;101315.00;;;33.90
20733;BMP180;10527;52.124;5.196;2022-08-19T12:38:52;101312.00;;;34.00
20733;BMP180;10527;52.124;5.196;2022-08-19T12:41:20;101306.00;;;34.00
20733;BMP180;10527;52.124;5.196;2022-08-19T12:43:49;101305.00;;;34.10
20733;BMP180;10527;52.124;5.196;2022-08-19T12:46:19;101311.00;;;34.10
20733;BMP180;10527;52.124;5.196;2022-08-19T12:48:49;101323.00;;;34.20
20733;BMP180;10527;52.124;5.196;2022-08-19T12:51:21;101319.00;;;34.10
20733;BMP180;10527;52.124;5.196;2022-08-19T12:53:48;101312.00;;;34.10
20733;BMP180;10527;52.124;5.196;2022-08-19T12:56:16;101321.00;;;34.00
20733;BMP180;10527;52.124;5.196;2022-08-19T12:58:49;101321.00;;;34.00
20733;BMP180;10527;52.124;5.196;2022-08-19T13:01:20;101313.00;;;33.90
20733;BMP180;10527;52.124;5.196;2022-08-19T13:03:50;101319.00;;;33.80
20733;BMP180;10527;52.124;5.196;2022-08-19T13:06:19;101313.00;;;33.60
20733;BMP180;10527;52.124;5.196;2022-08-19T13:08:46;101306.00;;;33.60
20733;BMP180;10527;52.124;5.196;2022-08-19T13:11:20;101316.00;;;33.50
20733;BMP180;10527;52.124;5.196;2022-08-19T13:13:49;101312.00;;;33.40
20733;BMP180;10527;52.124;5.196;2022-08-19T13:16:18;101306.00;;;33.40
20733;BMP180;10527;52.124;5.196;2022-08-19T13:18:47;101308.00;;;33.40
20733;BMP180;10527;52.124;5.196;2022-08-19T13:21:14;101316.00;;;33.40
20733;BMP180;10527;52.124;5.196;2022-08-19T13:23:42;101318.00;;;33.30
20733;BMP180;10527;52.124;5.196;2022-08-19T13:26:10;101322.00;;;33.30
20733;BMP180;10527;52.124;5.196;2022-08-19T13:28:40;101309.00;;;33.40
20733;BMP180;10527;52.124;5.196;2022-08-19T13:31:29;101313.00;;;33.30
20733;BMP180;10527;52.124;5.196;2022-08-19T13:34:17;101312.00;;;33.30
20733;BMP180;10527;52.124;5.196;2022-08-19T13:36:46;101311.00;;;33.30
20733;BMP180;10527;52.124;5.196;2022-08-19T13:39:13;101315.00;;;33.30
20733;BMP180;10527;52.124;5.196;2022-08-19T13:41:45;101310.00;;;33.40
20733;BMP180;10527;52.124;5.196;2022-08-19T13:44:18;101311.00;;;33.40
20733;BMP180;10527;52.124;5.196;2022-08-19T13:46:47;101310.00;;;33.40
20733;BMP180;10527;52.124;5.196;2022-08-19T13:49:20;101309.00;;;33.40
20733;BMP180;10527;52.124;5.196;2022-08-19T13:51:49;101306.00;;;33.40
20733;BMP180;10527;52.124;5.196;2022-08-19T13:54:16;101306.00;;;33.50
20733;BMP180;10527;52.124;5.196;2022-08-19T13:56:45;101312.00;;;33.50
20733;BMP180;10527;52.124;5.196;2022-08-19T13:59:12;101306.00;;;33.50
20733;BMP180;10527;52.124;5.196;2022-08-19T14:01:40;101309.00;;;33.60
20733;BMP180;10527;52.124;5.196;2022-08-19T14:04:08;101298.00;;;33.60
20733;BMP180;10527;52.124;5.196;2022-08-19T14:06:36;101311.00;;;33.70
20733;BMP180;10527;52.124;5.196;2022-08-19T14:09:03;101312.00;;;33.70
20733;BMP180;10527;52.124;5.196;2022-08-19T14:11:31;101310.00;;;33.70
20733;BMP180;10527;52.124;5.196;2022-08-19T14:13:57;101302.00;;;33.80
20733;BMP180;10527;52.124;5.196;2022-08-19T14:16:24;101307.00;;;33.70
20733;BMP180;10527;52.124;5.196;2022-08-19T14:18:51;101298.00;;;33.70
20733;BMP180;10527;52.124;5.196;2022-08-19T14:21:22;101296.00;;;33.70
20733;BMP180;10527;52.124;5.196;2022-08-19T14:23:50;101307.00;;;33.70
20733;BMP180;10527;52.124;5.196;2022-08-19T14:26:19;101306.00;;;33.70
20733;BMP180;10527;52.124;5.196;2022-08-19T14:28:47;101312.00;;;33.70